createdAt,value
2022-10-28T00:01:37.483Z,102721.91
2022-10-28T00:04:07.080Z,102721.33
2022-10-28T00:06:41.314Z,102717.61
2022-10-28T00:09:12.206Z,102717.33
2022-10-28T00:11:41.198Z,102714.91
2022-10-28T00:14:10.705Z,102716.20
2022-10-28T00:16:39.356Z,102712.02
2022-10-28T00:19:11.513Z,102713.33
2022-10-28T00:21:42.349Z,102708.29
2022-10-28T00:24:13.184Z,102705.02
2022-10-28T00:26:44.042Z,102708.46
2022-10-28T00:29:18.858Z,102702.92
2022-10-28T00:31:49.050Z,102699.73
2022-10-28T00:34:21.569Z,102693.91
2022-10-28T00:36:50.345Z,102702.23
2022-10-28T00:39:21.743Z,102700.48
2022-10-28T00:41:52.938Z,102701.13
2022-10-28T00:44:40.314Z,102699.29
2022-10-28T00:47:36.595Z,102700.55
2022-10-28T00:50:12.763Z,102699.70
2022-10-28T00:52:42.144Z,102699.35
2022-10-28T00:55:11.433Z,102701.43
2022-10-28T00:57:42.234Z,102699.50
2022-10-28T01:00:12.079Z,102694.24
2022-10-28T01:02:58.762Z,102691.91
2022-10-28T01:05:30.409Z,102690.54
2022-10-28T01:08:02.227Z,102690.20
2022-10-28T01:10:49.058Z,102688.95
2022-10-28T01:13:56.921Z,102685.27
2022-10-28T01:17:03.168Z,102686.72
2022-10-28T01:20:07.616Z,102688.31
2022-10-28T01:22:58.890Z,102685.11
2022-10-28T01:25:36.627Z,102683.61
2022-10-28T01:29:22.683Z,102681.90
2022-10-28T01:32:22.460Z,102686.95
2022-10-28T01:35:16.979Z,102681.81
2022-10-28T01:38:14.150Z,102675.89
2022-10-28T01:41:06.191Z,102675.38
2022-10-28T01:44:02.533Z,102676.99
2022-10-28T01:46:49.860Z,102675.17
2022-10-28T01:49:49.629Z,102670.52
2022-10-28T01:52:22.806Z,102674.85
2022-10-28T01:55:00.953Z,102672.66
2022-10-28T01:57:30.760Z,102670.45
2022-10-28T02:00:00.676Z,102674.61
2022-10-28T02:02:33.456Z,102671.02
2022-10-28T02:05:28.239Z,102670.91
2022-10-28T02:08:00.565Z,102670.91
2022-10-28T02:10:34.273Z,102666.35
2022-10-28T02:13:08.134Z,102666.42
2022-10-28T02:16:22.715Z,102661.96
2022-10-28T02:19:09.631Z,102655.34
2022-10-28T02:21:47.140Z,102656.27
2022-10-28T02:24:29.602Z,102657.45
2022-10-28T02:27:08.301Z,102656.07
2022-10-28T02:29:42.295Z,102653.60
2022-10-28T02:32:20.267Z,102658.70
2022-10-28T02:34:51.319Z,102661.56
2022-10-28T02:37:25.709Z,102661.79
2022-10-28T02:39:58.843Z,102661.45
2022-10-28T02:42:40.523Z,102664.38
2022-10-28T02:45:22.976Z,102666.63
2022-10-28T02:48:20.562Z,102667.05
2022-10-28T02:50:55.479Z,102673.77
2022-10-28T02:53:40.760Z,102672.02
2022-10-28T02:56:09.907Z,102671.67
2022-10-28T02:58:40.840Z,102669.27
2022-10-28T03:01:09.645Z,102670.30
2022-10-28T03:03:39.206Z,102670.88
